createdAt,value
2018-08-10T00:01:24.577Z,10.27
2018-08-10T00:03:54.278Z,10.87
2018-08-10T00:06:23.895Z,10.97
2018-08-10T00:08:53.532Z,10.67
2018-08-10T00:11:23.253Z,11.43
2018-08-10T00:13:52.974Z,12.10
2018-08-10T00:16:22.593Z,10.73
2018-08-10T00:18:52.278Z,11.40
2018-08-10T00:21:21.981Z,11.23
2018-08-10T00:23:51.540Z,11.20
2018-08-10T00:26:21.202Z,11.03
2018-08-10T00:28:50.761Z,11.57
2018-08-10T00:31:20.325Z,10.90
2018-08-10T00:33:50.000Z,10.93
2018-08-10T00:36:19.604Z,11.57
2018-08-10T00:38:49.259Z,11.20
2018-08-10T00:41:18.884Z,10.80
2018-08-10T00:43:48.520Z,12.10
2018-08-10T00:46:18.124Z,11.83
2018-08-10T00:48:47.849Z,11.13
2018-08-10T00:51:17.868Z,12.43
2018-08-10T00:53:47.809Z,13.03
2018-08-10T00:56:17.377Z,12.63
2018-08-10T00:58:46.972Z,12.50
2018-08-10T01:01:16.646Z,12.23
2018-08-10T01:03:46.272Z,12.43
2018-08-10T01:06:15.907Z,13.60
2018-08-10T01:08:45.575Z,13.93
2018-08-10T01:11:15.180Z,13.13
2018-08-10T01:13:44.824Z,14.43
2018-08-10T01:16:14.471Z,13.53
2018-08-10T01:18:44.153Z,13.90
2018-08-10T01:21:13.740Z,12.57
2018-08-10T01:23:43.366Z,13.17
2018-08-10T01:26:13.048Z,13.83
2018-08-10T01:30:58.219Z,14.63
2018-08-10T01:33:27.844Z,14.50
2018-08-10T01:35:57.507Z,13.83
2018-08-10T01:38:27.209Z,14.73
2018-08-10T01:40:56.865Z,14.60
2018-08-10T01:43:26.488Z,15.50
2018-08-10T01:45:56.149Z,15.93
2018-08-10T01:48:25.771Z,15.80
2018-08-10T01:50:55.319Z,16.27
2018-08-10T01:53:24.975Z,17.97
2018-08-10T01:55:54.625Z,15.80
2018-08-10T01:58:24.254Z,16.43
2018-08-10T02:00:53.814Z,17.57
2018-08-10T02:03:23.383Z,17.30
2018-08-10T02:05:53.022Z,17.70
2018-08-10T02:08:22.612Z,17.07
2018-08-10T02:10:52.360Z,17.13
2018-08-10T02:13:21.974Z,16.70
2018-08-10T02:15:51.538Z,16.90
2018-08-10T02:18:21.218Z,17.77
2018-08-10T02:20:50.821Z,17.67
2018-08-10T02:23:20.417Z,18.77
2018-08-10T02:25:50.019Z,16.67
2018-08-10T02:28:19.637Z,16.50
2018-08-10T02:30:49.297Z,15.23
2018-08-10T02:33:18.876Z,15.30
2018-08-10T02:35:48.463Z,15.70
2018-08-10T02:38:18.043Z,15.37
2018-08-10T02:40:47.605Z,14.87
2018-08-10T02:43:17.197Z,15.27
2018-08-10T02:45:46.792Z,14.53
2018-08-10T02:48:16.491Z,15.70
2018-08-10T02:50:46.145Z,15.43
2018-08-10T02:53:15.750Z,15.10
2018-08-10T02:55:45.307Z,14.83
2018-08-10T02:58:14.923Z,15.40
2018-08-10T03:00:44.551Z,14.40
2018-08-10T03:03:14.485Z,14.83
2018-08-10T03:05:44.115Z,15.70
2018-08-10T03:08:13.853Z,15.60
2018-08-10T03:10:43.470Z,15.97
2018-08-10T03:13:13.136Z,15.33
2018-08-10T03:15:42.748Z,15.00
2018-08-10T03:18:12.398Z,15.70
2018-08-10T03:20:42.008Z,15.30
2018-08-10T03:23:11.602Z,14.00
2018-08-10T03:25:41.184Z,13.10
2018-08-10T03:28:10.842Z,13.33
2018-08-10T03:30:40.448Z,14.03
2018-08-10T03:33:16.412Z,13.67
2018-08-10T03:35:46.016Z,14.10
2018-08-10T03:38:15.629Z,14.23
2018-08-10T03:40:45.271Z,14.57
2018-08-10T03:43:14.872Z,14.20
2018-08-10T03:45:44.476Z,13.97
2018-08-10T03:48:14.115Z,14.57
2018-08-10T03:50:43.709Z,14.63
2018-08-10T03:53:13.341Z,14.47
2018-08-10T03:55:42.890Z,14.47
2018-08-10T03:58:12.470Z,14.70
2018-08-10T04:00:42.048Z,15.10
2018-08-10T04:03:11.741Z,14.07
2018-08-10T04:05:41.352Z,14.33
2018-08-10T04:08:10.957Z,13.53
2018-08-10T04:10:46.973Z,14.30
2018-08-10T04:13:16.557Z,14.67
2018-08-10T04:15:46.209Z,14.37
2018-08-10T04:18:15.814Z,15.10
2018-08-10T04:20:45.413Z,14.47
2018-08-10T04:23:15.081Z,14.07
2018-08-10T04:25:44.642Z,14.60
2018-08-10T04:28:14.290Z,13.87
2018-08-10T04:30:43.933Z,14.27
2018-08-10T04:33:13.523Z,13.87
2018-08-10T04:35:43.132Z,13.70
2018-08-10T04:38:12.668Z,13.33
2018-08-10T04:40:42.336Z,15.47
2018-08-10T04:43:11.987Z,15.40
2018-08-10T04:45:41.552Z,15.07
2018-08-10T04:48:11.219Z,14.00
2018-08-10T04:50:40.809Z,14.77
2018-08-10T04:53:16.450Z,13.83
2018-08-10T04:55:50.852Z,15.70
2018-08-10T04:58:20.548Z,14.77
2018-08-10T05:00:50.306Z,15.13
2018-08-10T05:03:19.872Z,14.13
2018-08-10T05:05:49.528Z,13.40
2018-08-10T05:08:19.140Z,14.13
2018-08-10T05:10:48.787Z,13.90
2018-08-10T05:13:18.388Z,14.33
2018-08-10T05:15:48.137Z,13.40
2018-08-10T05:18:17.747Z,13.77
2018-08-10T05:20:47.382Z,14.27
2018-08-10T05:23:16.973Z,13.27
2018-08-10T05:25:46.586Z,13.53
2018-08-10T05:28:16.299Z,13.47
2018-08-10T05:30:45.864Z,12.77
2018-08-10T05:33:15.530Z,13.33
2018-08-10T05:35:45.179Z,13.23
2018-08-10T05:38:14.857Z,13.37
2018-08-10T05:40:44.375Z,13.73
2018-08-10T05:43:14.067Z,13.73
2018-08-10T05:45:43.652Z,13.60
2018-08-10T05:48:13.258Z,13.90
2018-08-10T05:50:42.927Z,14.70
2018-08-10T05:53:12.508Z,14.13
2018-08-10T05:55:42.114Z,13.63
2018-08-10T05:58:11.716Z,15.60
2018-08-10T06:00:41.287Z,14.13
2018-08-10T06:03:10.890Z,15.50
2018-08-10T06:05:40.459Z,15.93
2018-08-10T06:08:10.029Z,15.30
2018-08-10T06:10:39.695Z,15.00
2018-08-10T06:13:09.388Z,14.83
2018-08-10T06:15:39.001Z,15.17
2018-08-10T06:18:08.665Z,16.47
2018-08-10T06:20:38.248Z,16.60
2018-08-10T06:23:07.867Z,17.33
2018-08-10T06:25:38.402Z,18.27
2018-08-10T06:28:08.120Z,19.10
2018-08-10T06:30:37.706Z,18.27
2018-08-10T06:33:07.407Z,18.13
2018-08-10T06:35:37.039Z,18.40
2018-08-10T06:38:06.751Z,19.40
2018-08-10T06:40:36.426Z,18.83
2018-08-10T06:43:06.144Z,21.70
2018-08-10T06:45:35.690Z,19.87
2018-08-10T06:48:05.380Z,20.77
2018-08-10T06:50:34.971Z,21.73
2018-08-10T06:53:04.582Z,21.33
2018-08-10T06:55:34.209Z,20.73
2018-08-10T06:58:03.794Z,21.70
2018-08-10T07:00:33.574Z,20.33
2018-08-10T07:03:03.173Z,21.60
2018-08-10T07:05:32.745Z,20.23
2018-08-10T07:08:02.320Z,19.87
2018-08-10T07:10:32.083Z,21.20
2018-08-10T07:13:01.668Z,21.03
2018-08-10T07:15:31.310Z,21.00
2018-08-10T07:18:00.988Z,20.50
2018-08-10T07:20:30.601Z,21.37
2018-08-10T07:23:00.185Z,21.47
2018-08-10T07:25:29.779Z,21.97
2018-08-10T07:27:59.453Z,19.60
2018-08-10T07:30:29.043Z,20.77
2018-08-10T07:32:58.597Z,20.73
2018-08-10T07:35:28.174Z,19.20
2018-08-10T07:37:57.757Z,19.50
2018-08-10T07:40:27.458Z,20.63
2018-08-10T07:42:57.120Z,18.67
2018-08-10T07:45:26.696Z,17.80
2018-08-10T07:47:56.273Z,18.47
2018-08-10T07:50:25.845Z,19.57
2018-08-10T07:52:55.393Z,21.20
2018-08-10T07:55:25.008Z,21.40
2018-08-10T07:57:54.620Z,19.57
2018-08-10T08:00:24.334Z,20.40
2018-08-10T08:02:53.889Z,19.85
2018-08-10T08:05:23.508Z,19.95
2018-08-10T08:07:53.180Z,20.82
2018-08-10T08:10:23.055Z,21.25
2018-08-10T08:12:52.730Z,19.82
2018-08-10T08:15:22.360Z,19.50
2018-08-10T08:17:52.141Z,20.85
2018-08-10T08:20:21.765Z,18.37
2018-08-10T08:23:03.868Z,20.87
2018-08-10T08:25:33.511Z,17.90
2018-08-10T08:28:03.173Z,19.82
2018-08-10T08:30:32.929Z,20.20
2018-08-10T08:33:02.535Z,21.00
2018-08-10T08:35:32.246Z,17.65
2018-08-10T08:38:12.486Z,19.77
2018-08-10T08:40:42.116Z,18.15
2018-08-10T08:43:11.832Z,19.50
2018-08-10T08:45:54.145Z,17.40
2018-08-10T08:48:24.047Z,18.92
2018-08-10T08:50:59.289Z,18.32
2018-08-10T08:53:28.922Z,18.27
2018-08-10T08:56:06.536Z,20.05
2018-08-10T08:58:36.968Z,19.75
2018-08-10T09:01:07.517Z,19.48
2018-08-10T09:03:47.948Z,18.30
2018-08-10T09:06:17.545Z,19.65
2018-08-10T09:08:57.919Z,19.62
2018-08-10T09:11:27.593Z,19.52
2018-08-10T09:15:01.866Z,20.27
2018-08-10T09:17:31.495Z,20.95
2018-08-10T09:20:01.244Z,20.57
2018-08-10T09:22:31.350Z,21.93
2018-08-10T09:25:01.226Z,19.27
2018-08-10T09:27:30.952Z,18.60
2018-08-10T09:30:00.635Z,18.17
2018-08-10T09:32:30.288Z,17.10
2018-08-10T09:34:59.919Z,19.10
2018-08-10T09:37:29.539Z,18.20
2018-08-10T09:39:59.205Z,18.30
2018-08-10T09:42:28.864Z,17.60
2018-08-10T09:44:58.583Z,18.87
2018-08-10T09:47:28.182Z,18.77
2018-08-10T09:49:57.848Z,19.23
2018-08-10T09:52:27.525Z,20.75
2018-08-10T09:55:31.221Z,19.50
2018-08-10T09:58:09.226Z,20.10
2018-08-10T10:00:44.148Z,21.00
2018-08-10T10:03:17.998Z,19.15
2018-08-10T10:05:48.710Z,20.30
2018-08-10T10:08:18.972Z,21.62
2018-08-10T10:10:48.640Z,17.98
2018-08-10T10:13:18.455Z,19.73
2018-08-10T10:15:48.102Z,20.12
2018-08-10T10:18:18.609Z,21.45
2018-08-10T10:20:48.939Z,21.95
2018-08-10T10:23:18.644Z,20.75
2018-08-10T10:25:48.244Z,18.50
2018-08-10T10:28:17.791Z,17.23
2018-08-10T10:30:47.628Z,17.50
2018-08-10T10:33:17.308Z,17.95
2018-08-10T10:35:46.867Z,17.30
2018-08-10T10:38:16.581Z,17.82
2018-08-10T10:40:46.253Z,17.48
2018-08-10T10:43:15.811Z,19.30
2018-08-10T10:45:45.426Z,18.65
2018-08-10T10:48:15.013Z,18.05
2018-08-10T10:50:44.596Z,16.10
2018-08-10T10:53:14.345Z,16.40
2018-08-10T10:55:44.038Z,17.30
2018-08-10T10:58:13.626Z,16.80
2018-08-10T11:00:43.249Z,18.67
2018-08-10T11:03:12.864Z,17.85
2018-08-10T11:05:42.528Z,17.50
2018-08-10T11:08:12.151Z,16.30
2018-08-10T11:10:41.719Z,15.58
2018-08-10T11:13:11.350Z,14.83
2018-08-10T11:15:41.055Z,14.30
2018-08-10T11:18:10.793Z,15.00
2018-08-10T11:20:40.393Z,16.12
2018-08-10T11:23:10.027Z,11.20
2018-08-10T11:25:39.695Z,9.05
2018-08-10T11:28:09.264Z,10.20
2018-08-10T11:30:38.887Z,9.90
2018-08-10T11:33:08.479Z,9.95
2018-08-10T11:35:38.095Z,9.10
2018-08-10T11:38:07.765Z,9.70
2018-08-10T11:40:37.346Z,7.90
2018-08-10T11:43:07.022Z,7.78
2018-08-10T11:45:36.812Z,8.58
2018-08-10T11:48:06.513Z,9.08
2018-08-10T11:50:36.200Z,9.50
2018-08-10T11:53:05.874Z,8.58
2018-08-10T11:55:35.591Z,8.33
2018-08-10T11:58:05.291Z,8.65
2018-08-10T12:00:34.908Z,8.50
2018-08-10T12:03:04.694Z,8.65
2018-08-10T12:05:34.269Z,8.25
2018-08-10T12:08:03.522Z,8.03
2018-08-10T12:10:33.252Z,8.35
2018-08-10T12:13:02.881Z,7.00
2018-08-10T12:15:32.593Z,6.83
2018-08-10T12:18:02.233Z,7.22
2018-08-10T12:20:31.969Z,7.72
2018-08-10T12:23:01.594Z,6.72
2018-08-10T12:25:31.213Z,7.35
2018-08-10T12:28:00.776Z,5.80
2018-08-10T12:30:30.374Z,5.40
2018-08-10T12:33:00.073Z,6.20
2018-08-10T12:35:29.694Z,5.90
2018-08-10T12:37:59.399Z,5.75
2018-08-10T12:40:28.979Z,4.83
2018-08-10T12:42:58.570Z,4.90
2018-08-10T12:45:28.474Z,5.25
2018-08-10T12:47:58.093Z,4.65
2018-08-10T12:50:27.747Z,4.83
2018-08-10T12:52:57.424Z,4.35
2018-08-10T12:55:26.972Z,4.10
2018-08-10T12:57:56.601Z,4.20
2018-08-10T13:00:26.324Z,4.22
2018-08-10T13:02:56.072Z,4.22
2018-08-10T13:05:25.645Z,4.35
2018-08-10T13:07:55.302Z,4.17
2018-08-10T13:10:24.953Z,4.70
2018-08-10T13:12:54.573Z,3.87
2018-08-10T13:15:24.260Z,3.50
2018-08-10T13:17:53.864Z,4.10
2018-08-10T13:20:23.358Z,3.92
2018-08-10T13:22:52.973Z,3.60
2018-08-10T13:25:22.674Z,2.62
2018-08-10T13:27:52.390Z,3.02
2018-08-10T13:30:21.993Z,3.27
2018-08-10T13:32:51.669Z,4.10
2018-08-10T13:35:21.306Z,3.50
2018-08-10T13:37:50.964Z,3.40
2018-08-10T13:40:20.589Z,2.90
2018-08-10T13:42:50.206Z,3.30
2018-08-10T13:45:19.857Z,3.50
2018-08-10T13:47:49.529Z,3.85
2018-08-10T13:50:19.259Z,3.90
2018-08-10T13:52:48.918Z,3.90
2018-08-10T13:55:19.872Z,4.22
2018-08-10T13:57:50.138Z,4.05
2018-08-10T14:00:22.727Z,4.00
2018-08-10T14:02:53.992Z,3.77
2018-08-10T14:05:24.410Z,3.60
2018-08-10T14:07:54.762Z,4.00
2018-08-10T14:10:24.412Z,3.55
2018-08-10T14:12:54.043Z,3.37
2018-08-10T14:15:23.677Z,3.75
2018-08-10T14:17:53.322Z,3.90
2018-08-10T14:20:22.867Z,4.28
2018-08-10T14:22:52.549Z,3.70
2018-08-10T14:25:22.176Z,3.83
2018-08-10T14:27:51.919Z,4.20
2018-08-10T14:30:21.509Z,4.55
2018-08-10T14:32:51.317Z,4.72
2018-08-10T14:35:21.078Z,4.55
2018-08-10T14:37:50.676Z,4.33
2018-08-10T14:40:20.436Z,4.28
2018-08-10T14:42:50.049Z,4.47
2018-08-10T14:45:19.707Z,4.30
2018-08-10T14:47:49.408Z,7.20
2018-08-10T14:50:18.950Z,4.30
2018-08-10T14:52:48.681Z,4.40
2018-08-10T14:55:18.442Z,4.25
2018-08-10T14:57:48.057Z,3.75
2018-08-10T15:00:19.562Z,4.20
2018-08-10T15:02:49.468Z,4.72
2018-08-10T15:05:19.318Z,4.37
2018-08-10T15:07:48.949Z,4.05
2018-08-10T15:10:18.803Z,4.60
2018-08-10T15:12:48.671Z,4.90
2018-08-10T15:15:19.465Z,3.95
2018-08-10T15:17:49.418Z,4.17
2018-08-10T15:20:20.420Z,3.60
2018-08-10T15:22:50.219Z,3.87
2018-08-10T15:25:19.798Z,4.33
2018-08-10T15:27:49.468Z,4.53
2018-08-10T15:30:19.785Z,4.55
2018-08-10T15:32:49.343Z,4.37
2018-08-10T15:35:18.928Z,3.98
2018-08-10T15:37:48.622Z,3.90
2018-08-10T15:40:19.624Z,4.10
2018-08-10T15:42:49.285Z,4.20
2018-08-10T15:45:19.290Z,4.20
2018-08-10T15:47:49.021Z,3.95
2018-08-10T15:50:18.732Z,4.15
2018-08-10T15:52:48.395Z,3.58
2018-08-10T15:55:17.945Z,4.20
2018-08-10T15:57:47.630Z,4.08
2018-08-10T16:00:24.870Z,4.12
2018-08-10T16:02:54.536Z,4.25
2018-08-10T16:05:24.188Z,4.17
2018-08-10T16:07:53.858Z,3.80
2018-08-10T16:10:23.688Z,3.47
2018-08-10T16:12:53.328Z,3.65
2018-08-10T16:15:22.966Z,3.67
2018-08-10T16:17:52.539Z,3.40
2018-08-10T16:20:23.009Z,3.33
2018-08-10T16:22:52.720Z,3.72
2018-08-10T16:25:22.375Z,3.27
2018-08-10T16:27:51.982Z,3.17
2018-08-10T16:30:21.674Z,3.42
2018-08-10T16:32:51.311Z,3.33
2018-08-10T16:35:20.991Z,3.40
2018-08-10T16:37:50.682Z,3.05
2018-08-10T16:40:20.803Z,3.17
2018-08-10T16:42:50.470Z,3.65
2018-08-10T16:45:20.110Z,3.58
2018-08-10T16:47:49.875Z,3.72
2018-08-10T16:50:20.141Z,3.67
2018-08-10T16:52:49.814Z,3.22
2018-08-10T16:55:20.591Z,3.87
2018-08-10T16:57:50.717Z,4.20
2018-08-10T17:00:21.870Z,3.27
2018-08-10T17:02:51.474Z,3.80
2018-08-10T17:05:21.192Z,4.45
2018-08-10T17:07:50.697Z,4.15
2018-08-10T17:10:20.338Z,4.30
2018-08-10T17:12:49.929Z,4.10
2018-08-10T17:15:20.485Z,4.30
2018-08-10T17:17:50.083Z,3.80
2018-08-10T17:20:19.878Z,3.70
2018-08-10T17:22:49.468Z,4.40
2018-08-10T17:25:20.596Z,4.08
2018-08-10T17:27:50.356Z,4.17
2018-08-10T17:30:20.771Z,4.80
2018-08-10T17:32:50.427Z,4.37
2018-08-10T17:35:20.034Z,3.72
2018-08-10T17:37:49.648Z,3.87
2018-08-10T17:40:19.262Z,3.80
2018-08-10T17:42:49.016Z,4.10
2018-08-10T17:45:18.940Z,4.30
2018-08-10T17:47:48.644Z,3.92
2018-08-10T17:50:20.301Z,4.37
2018-08-10T17:52:51.345Z,3.80
2018-08-10T17:55:21.465Z,4.15
2018-08-10T17:57:51.246Z,3.87
2018-08-10T18:00:25.591Z,4.10
2018-08-10T18:02:55.166Z,4.08
2018-08-10T18:05:24.871Z,4.00
2018-08-10T18:07:54.465Z,4.70
2018-08-10T18:10:24.091Z,3.92
2018-08-10T18:12:53.760Z,4.30
2018-08-10T18:15:23.603Z,4.80
2018-08-10T18:17:53.356Z,4.80
2018-08-10T18:20:23.565Z,5.08
2018-08-10T18:22:53.651Z,4.80
2018-08-10T18:25:23.778Z,4.70
2018-08-10T18:27:53.459Z,4.53
2018-08-10T18:30:25.703Z,5.47
2018-08-10T18:32:55.421Z,5.10
2018-08-10T18:35:25.266Z,5.62
2018-08-10T18:37:55.408Z,4.97
2018-08-10T18:40:25.945Z,5.12
2018-08-10T18:42:56.391Z,5.85
2018-08-10T18:45:26.703Z,6.25
2018-08-10T18:47:57.224Z,6.47
2018-08-10T18:50:27.136Z,6.47
2018-08-10T18:52:57.401Z,6.03
2018-08-10T18:55:27.561Z,6.08
2018-08-10T18:57:57.697Z,6.92
2018-08-10T19:00:28.374Z,6.75
2018-08-10T19:02:58.316Z,6.87
2018-08-10T19:05:28.518Z,6.65
2018-08-10T19:07:58.587Z,6.33
2018-08-10T19:10:29.329Z,6.37
2018-08-10T19:12:59.410Z,7.78
2018-08-10T19:15:29.545Z,11.83
2018-08-10T19:17:59.655Z,10.13
2018-08-10T19:20:30.002Z,9.70
2018-08-10T19:23:00.207Z,7.87
2018-08-10T19:25:30.515Z,6.85
2018-08-10T19:28:00.699Z,6.37
2018-08-10T19:30:31.150Z,6.35
2018-08-10T19:33:01.481Z,6.42
2018-08-10T19:35:31.911Z,6.65
2018-08-10T19:38:01.857Z,6.90
2018-08-10T19:40:32.214Z,7.65
2018-08-10T19:43:02.591Z,6.33
2018-08-10T19:45:32.905Z,6.30
2018-08-10T19:48:03.272Z,5.92
2018-08-10T19:50:34.716Z,6.22
2018-08-10T19:53:05.042Z,6.95
2018-08-10T19:55:35.545Z,6.10
2018-08-10T19:58:05.853Z,6.70
2018-08-10T20:00:36.260Z,6.92
2018-08-10T20:03:06.844Z,6.17
2018-08-10T20:05:37.110Z,6.17
2018-08-10T20:08:07.344Z,6.53
2018-08-10T20:10:37.723Z,6.08
2018-08-10T20:13:08.071Z,7.05
2018-08-10T20:15:38.419Z,6.78
2018-08-10T20:18:08.705Z,6.80
2018-08-10T20:20:39.011Z,6.50
2018-08-10T20:23:09.366Z,6.60
2018-08-10T20:25:39.671Z,6.58
2018-08-10T20:28:09.962Z,6.70
2018-08-10T20:30:40.252Z,6.83
2018-08-10T20:33:10.240Z,7.00
2018-08-10T20:35:40.373Z,7.13
2018-08-10T20:38:10.229Z,6.58
2018-08-10T20:40:40.153Z,7.00
2018-08-10T20:43:09.917Z,6.78
2018-08-10T20:45:39.967Z,6.72
2018-08-10T20:48:09.834Z,7.12
2018-08-10T20:50:40.327Z,6.40
2018-08-10T20:53:10.023Z,6.90
2018-08-10T20:55:39.668Z,6.27
2018-08-10T20:58:09.310Z,5.87
2018-08-10T21:00:38.975Z,6.73
2018-08-10T21:03:08.650Z,7.47
2018-08-10T21:05:38.330Z,6.43
2018-08-10T21:08:07.916Z,6.60
2018-08-10T21:10:37.535Z,6.92
2018-08-10T21:13:07.238Z,6.47
2018-08-10T21:15:36.856Z,6.92
2018-08-10T21:18:06.568Z,7.00
2018-08-10T21:20:36.191Z,7.40
2018-08-10T21:23:05.822Z,6.40
2018-08-10T21:25:35.484Z,6.80
2018-08-10T21:28:05.226Z,7.13
2018-08-10T21:30:34.836Z,6.60
2018-08-10T21:33:04.596Z,7.35
2018-08-10T21:35:34.304Z,6.70
2018-08-10T21:38:03.921Z,6.80
2018-08-10T21:40:33.638Z,7.17
2018-08-10T21:43:03.293Z,7.73
2018-08-10T21:45:32.888Z,7.23
2018-08-10T21:48:02.647Z,7.27
2018-08-10T21:50:32.302Z,7.20
2018-08-10T21:53:01.873Z,6.42
2018-08-10T21:55:31.524Z,6.93
2018-08-10T21:58:01.166Z,7.23
2018-08-10T22:00:39.760Z,8.17
2018-08-10T22:03:10.816Z,8.33
2018-08-10T22:05:40.897Z,8.53
2018-08-10T22:08:10.570Z,7.57
2018-08-10T22:10:40.526Z,8.60
2018-08-10T22:13:14.275Z,8.03
2018-08-10T22:15:48.797Z,8.23
2018-08-10T22:18:23.686Z,7.80
2018-08-10T22:20:53.728Z,8.33
2018-08-10T22:23:23.360Z,8.07
2018-08-10T22:25:53.081Z,7.67
2018-08-10T22:28:22.655Z,8.65
2018-08-10T22:30:52.287Z,7.62
2018-08-10T22:33:22.008Z,8.33
2018-08-10T22:35:51.531Z,8.10
2018-08-10T22:38:21.158Z,8.45
2018-08-10T22:40:50.711Z,7.95
2018-08-10T22:43:20.302Z,8.98
2018-08-10T22:45:49.892Z,8.10
2018-08-10T22:48:19.666Z,8.25
2018-08-10T22:50:49.240Z,8.58
2018-08-10T22:53:18.834Z,8.68
2018-08-10T22:55:48.431Z,9.45
2018-08-10T22:58:18.088Z,8.68
2018-08-10T23:00:47.787Z,9.78
2018-08-10T23:03:17.484Z,10.10
2018-08-10T23:05:47.093Z,9.20
2018-08-10T23:08:16.766Z,10.17
2018-08-10T23:10:46.349Z,9.13
2018-08-10T23:13:16.010Z,8.80
2018-08-10T23:15:45.633Z,8.77
2018-08-10T23:18:15.270Z,8.67
2018-08-10T23:20:44.898Z,9.37
2018-08-10T23:23:14.573Z,9.43
2018-08-10T23:25:44.194Z,9.17
2018-08-10T23:28:13.760Z,9.20
2018-08-10T23:30:43.360Z,9.27
2018-08-10T23:33:12.928Z,9.03
2018-08-10T23:35:42.687Z,8.90
2018-08-10T23:38:12.388Z,9.03
2018-08-10T23:40:42.072Z,9.27
2018-08-10T23:43:11.693Z,9.47
2018-08-10T23:45:41.429Z,9.23
2018-08-10T23:48:10.982Z,9.57
2018-08-10T23:50:40.568Z,9.43
2018-08-10T23:53:10.288Z,9.33
2018-08-10T23:55:39.985Z,9.63
2018-08-10T23:58:09.627Z,9.53
